Newfolden, Minnesota
Current Conditions -  °F | °C
As of 12:35 AM on Saturday 25 Oct 2014 (Local Time) from KTVF Reporting Station
Clear Clear  
Wind Chill: 43°   Ceiling: Unl
Heat Index: 48°   Visibility: 10mi
Dew Point: 34°   Wind: 12mph
Humidity: 57%   Direction: 270°W
Pressure: 29.89"   Gusts: NA
Location:  48.36°N, 96.33°W
Report Text: KTVF 250535Z AUTO 27010KT 10SM CLR 09/01 A2989 RMK AO1
Loading
Personal Weather Stations






























Interactive Weather Map
Tropical Storm Tracking
New forecast layout! Learn more

10-Day Weather Forecast

Advertisements
Track Severe Weather on mobile